createdAt,value
2023-03-02T00:00:21.445Z,1.55
2023-03-02T00:01:26.074Z,1.60
2023-03-02T00:02:29.458Z,1.60
2023-03-02T00:03:33.597Z,1.92
2023-03-02T00:04:45.729Z,1.67
2023-03-02T00:05:47.640Z,2.10
2023-03-02T00:06:52.202Z,1.67
2023-03-02T00:07:54.896Z,1.35
2023-03-02T00:09:00.739Z,1.52
2023-03-02T00:10:02.748Z,1.48
2023-03-02T00:11:05.567Z,2.22
2023-03-02T00:12:08.515Z,1.90
2023-03-02T00:13:11.946Z,2.03
2023-03-02T00:14:13.843Z,1.60
2023-03-02T00:15:15.726Z,1.70
2023-03-02T00:16:17.634Z,1.52
2023-03-02T00:17:27.860Z,2.03
2023-03-02T00:18:29.842Z,1.88
2023-03-02T00:19:31.706Z,2.10
2023-03-02T00:20:34.821Z,1.40
2023-03-02T00:21:36.660Z,1.60
2023-03-02T00:22:39.650Z,1.80
2023-03-02T00:23:41.553Z,1.83
2023-03-02T00:24:43.418Z,1.75
2023-03-02T00:25:45.294Z,1.40
2023-03-02T00:26:47.133Z,1.65
2023-03-02T00:27:49.178Z,1.70
2023-03-02T00:28:51.362Z,1.83
2023-03-02T00:29:53.407Z,2.00
2023-03-02T00:30:55.815Z,1.42
2023-03-02T00:31:57.731Z,1.60
2023-03-02T00:32:59.610Z,1.88
2023-03-02T00:34:01.426Z,1.77
2023-03-02T00:35:03.839Z,1.70
2023-03-02T00:36:06.082Z,1.90
2023-03-02T00:37:07.903Z,1.80
2023-03-02T00:38:09.803Z,1.50
2023-03-02T00:39:11.624Z,1.58
2023-03-02T00:40:13.833Z,2.10
2023-03-02T00:41:16.456Z,1.95
2023-03-02T00:42:18.524Z,1.70
2023-03-02T00:43:22.888Z,1.65
2023-03-02T00:44:24.916Z,1.63
2023-03-02T00:45:26.797Z,1.95
2023-03-02T00:46:28.781Z,1.80
2023-03-02T00:47:32.925Z,1.70
2023-03-02T00:48:34.850Z,1.58
2023-03-02T00:49:36.918Z,1.92
2023-03-02T00:50:41.086Z,1.38
2023-03-02T00:51:42.941Z,1.70
2023-03-02T00:52:44.764Z,1.60
2023-03-02T00:53:47.061Z,1.85
2023-03-02T00:54:48.886Z,1.92
2023-03-02T00:55:54.876Z,1.63
2023-03-02T00:56:58.094Z,1.70
2023-03-02T00:58:00.049Z,2.03
2023-03-02T00:59:06.649Z,1.65
2023-03-02T01:00:10.009Z,1.75
2023-03-02T01:01:15.770Z,1.52
2023-03-02T01:02:21.882Z,1.83
2023-03-02T01:03:24.774Z,1.67
2023-03-02T01:04:39.417Z,1.70
2023-03-02T01:05:41.498Z,1.70
2023-03-02T01:06:47.266Z,1.50
2023-03-02T01:07:49.147Z,1.77
2023-03-02T01:08:51.286Z,1.58
2023-03-02T01:09:53.144Z,1.98
2023-03-02T01:10:55.154Z,1.70
2023-03-02T01:11:57.140Z,1.85
2023-03-02T01:12:59.039Z,2.03
2023-03-02T01:14:00.853Z,1.90
2023-03-02T01:15:03.320Z,1.40
2023-03-02T01:16:05.788Z,1.40
2023-03-02T01:17:08.314Z,1.70
2023-03-02T01:18:12.133Z,1.58
2023-03-02T01:19:15.410Z,1.50
2023-03-02T01:20:18.066Z,1.80
2023-03-02T01:21:20.053Z,1.58
2023-03-02T01:22:22.750Z,1.70
2023-03-02T01:23:24.581Z,1.52
2023-03-02T01:24:26.458Z,1.70
2023-03-02T01:25:28.437Z,1.65
2023-03-02T01:26:30.465Z,1.63
2023-03-02T01:27:33.337Z,1.52
2023-03-02T01:28:35.329Z,1.40
2023-03-02T01:29:37.673Z,1.80
2023-03-02T01:30:39.793Z,1.83
2023-03-02T01:31:41.641Z,1.52
2023-03-02T01:32:43.541Z,2.13
2023-03-02T01:33:45.414Z,1.92
2023-03-02T01:34:47.206Z,1.70
2023-03-02T01:35:49.434Z,1.63
2023-03-02T01:36:51.241Z,1.75
2023-03-02T01:37:53.122Z,2.17
2023-03-02T01:38:55.105Z,1.60
2023-03-02T01:39:56.973Z,1.67
2023-03-02T01:40:58.774Z,1.52
2023-03-02T01:42:00.811Z,1.70
2023-03-02T01:43:04.830Z,1.80
2023-03-02T01:44:12.647Z,1.80
2023-03-02T01:45:59.379Z,1.75
2023-03-02T01:47:23.371Z,1.35
2023-03-02T01:49:00.717Z,1.60
2023-03-02T01:50:27.004Z,1.75
2023-03-02T01:51:38.273Z,1.40
2023-03-02T01:52:40.567Z,1.65
2023-03-02T01:53:46.820Z,1.67
2023-03-02T01:54:50.273Z,1.77
2023-03-02T01:55:53.478Z,1.40
2023-03-02T01:56:59.146Z,1.48
2023-03-02T01:58:03.824Z,1.52
2023-03-02T01:59:10.929Z,1.48
2023-03-02T02:00:35.013Z,1.63
2023-03-02T02:01:39.566Z,1.40
2023-03-02T02:02:42.077Z,1.60
2023-03-02T02:03:47.688Z,1.60
2023-03-02T02:04:50.782Z,1.70
2023-03-02T02:06:12.151Z,1.42
2023-03-02T02:07:15.138Z,1.25
2023-03-02T02:08:17.256Z,1.63
2023-03-02T02:09:22.684Z,1.40
2023-03-02T02:10:24.607Z,1.35
2023-03-02T02:11:26.682Z,1.48
2023-03-02T02:12:28.621Z,1.70
2023-03-02T02:13:30.728Z,1.50
2023-03-02T02:14:32.858Z,1.40
2023-03-02T02:15:34.921Z,1.45
2023-03-02T02:16:38.247Z,1.52
2023-03-02T02:17:40.753Z,1.60
2023-03-02T02:18:44.565Z,1.35
2023-03-02T02:20:20.160Z,1.23
2023-03-02T02:21:24.592Z,1.40
2023-03-02T02:22:32.901Z,1.20
2023-03-02T02:23:44.089Z,1.25
2023-03-02T02:25:00.341Z,1.50
2023-03-02T02:26:12.953Z,1.20
2023-03-02T02:27:15.199Z,1.45
2023-03-02T02:28:25.347Z,1.40
2023-03-02T02:29:45.628Z,1.50
2023-03-02T02:30:52.568Z,1.15
2023-03-02T02:32:24.351Z,1.15
2023-03-02T02:33:27.635Z,1.55
2023-03-02T02:34:34.831Z,1.00
2023-03-02T02:35:38.692Z,1.40
2023-03-02T02:36:45.810Z,1.20
2023-03-02T02:37:56.469Z,1.38
2023-03-02T02:39:02.487Z,1.38
2023-03-02T02:40:09.703Z,1.60
2023-03-02T02:41:20.370Z,1.25
2023-03-02T02:42:34.517Z,1.20
2023-03-02T02:43:36.460Z,1.58
2023-03-02T02:44:39.017Z,1.15
2023-03-02T02:45:41.634Z,1.35
2023-03-02T02:46:44.950Z,1.45
2023-03-02T02:47:47.726Z,1.08
2023-03-02T02:48:49.624Z,1.00
2023-03-02T02:49:55.729Z,1.33
2023-03-02T02:51:03.351Z,1.30
2023-03-02T02:52:06.580Z,0.93
2023-03-02T02:53:25.005Z,1.10
2023-03-02T02:54:28.853Z,1.02
2023-03-02T02:55:33.473Z,1.75
2023-03-02T02:56:38.345Z,1.38
2023-03-02T02:57:41.830Z,1.20
2023-03-02T02:58:48.527Z,1.08
2023-03-02T02:59:56.089Z,1.13
2023-03-02T03:00:59.435Z,1.05
2023-03-02T03:02:02.485Z,1.05
2023-03-02T03:03:30.703Z,0.95
2023-03-02T03:04:35.724Z,1.00
2023-03-02T03:05:37.556Z,1.35
2023-03-02T03:06:50.667Z,1.52
2023-03-02T03:07:53.285Z,1.15
2023-03-02T03:08:58.746Z,1.15
2023-03-02T03:10:12.664Z,0.90
2023-03-02T03:11:26.698Z,1.23
2023-03-02T03:12:32.037Z,1.10
2023-03-02T03:13:34.259Z,1.55
2023-03-02T03:14:40.544Z,1.10
2023-03-02T03:15:43.770Z,1.60
2023-03-02T03:16:47.921Z,1.50
2023-03-02T03:17:58.180Z,1.77
2023-03-02T03:19:31.069Z,1.77
2023-03-02T03:20:33.899Z,1.40
2023-03-02T03:21:36.309Z,1.30
2023-03-02T03:22:38.904Z,1.58
2023-03-02T03:23:42.642Z,1.25
2023-03-02T03:24:45.889Z,1.20
2023-03-02T03:25:49.930Z,1.20
2023-03-02T03:26:54.240Z,1.00
2023-03-02T03:27:56.352Z,1.13
2023-03-02T03:28:58.491Z,1.20
2023-03-02T03:30:02.102Z,1.42
2023-03-02T03:31:06.363Z,1.25
2023-03-02T03:32:09.253Z,1.10
2023-03-02T03:33:11.175Z,1.20
2023-03-02T03:34:14.481Z,1.02
2023-03-02T03:35:16.543Z,1.67
2023-03-02T03:36:19.104Z,1.00
2023-03-02T03:37:21.642Z,0.98
2023-03-02T03:38:23.901Z,1.33
2023-03-02T03:39:26.077Z,1.40
2023-03-02T03:40:29.105Z,1.30
2023-03-02T03:41:31.534Z,1.23
2023-03-02T03:42:33.849Z,1.20
2023-03-02T03:43:35.896Z,1.13
2023-03-02T03:44:38.139Z,1.40
2023-03-02T03:45:40.200Z,1.08
2023-03-02T03:46:43.395Z,1.05
2023-03-02T03:47:45.491Z,0.98
2023-03-02T03:48:47.509Z,1.20
2023-03-02T03:49:49.480Z,1.10
2023-03-02T03:50:51.633Z,1.00
2023-03-02T03:51:54.136Z,1.20
2023-03-02T03:52:56.519Z,1.08
2023-03-02T03:54:08.188Z,0.90
2023-03-02T03:55:14.100Z,1.17
2023-03-02T03:56:18.303Z,1.05
2023-03-02T03:57:20.403Z,1.15
2023-03-02T03:58:22.436Z,0.70
2023-03-02T03:59:25.741Z,1.08
2023-03-02T04:00:33.861Z,0.98
2023-03-02T04:01:48.137Z,1.10
2023-03-02T04:02:57.279Z,0.80
2023-03-02T04:04:02.730Z,1.00
2023-03-02T04:05:06.533Z,0.70
2023-03-02T04:06:09.136Z,0.90
2023-03-02T04:07:11.591Z,0.90
2023-03-02T04:08:13.679Z,1.23
2023-03-02T04:09:18.105Z,1.30
2023-03-02T04:10:20.748Z,0.90
2023-03-02T04:11:23.705Z,0.77
2023-03-02T04:12:25.629Z,1.15
2023-03-02T04:13:28.438Z,0.80
2023-03-02T04:14:31.216Z,1.17
2023-03-02T04:15:33.410Z,0.75
2023-03-02T04:16:36.906Z,0.75
2023-03-02T04:17:38.788Z,0.82
2023-03-02T04:18:40.743Z,0.90
2023-03-02T04:19:42.623Z,0.98
2023-03-02T04:20:44.984Z,1.13
2023-03-02T04:21:51.011Z,1.10
2023-03-02T04:22:55.504Z,0.95
2023-03-02T04:23:57.675Z,0.70
2023-03-02T04:24:59.593Z,0.85
2023-03-02T04:26:05.213Z,0.90
2023-03-02T04:27:08.012Z,1.10
2023-03-02T04:28:10.295Z,0.90
2023-03-02T04:29:14.922Z,0.80
2023-03-02T04:30:21.017Z,1.00
2023-03-02T04:31:23.166Z,0.90
2023-03-02T04:32:25.126Z,0.68
2023-03-02T04:33:30.183Z,0.70
2023-03-02T04:34:32.503Z,0.82
2023-03-02T04:35:34.616Z,0.80
2023-03-02T04:36:39.222Z,0.80
2023-03-02T04:37:44.447Z,0.70
2023-03-02T04:38:47.013Z,0.93
2023-03-02T04:39:51.645Z,0.70
2023-03-02T04:40:53.469Z,0.90
2023-03-02T04:41:55.831Z,0.80
2023-03-02T04:42:57.689Z,0.90
2023-03-02T04:43:59.569Z,0.70
2023-03-02T04:45:02.258Z,0.90
2023-03-02T04:46:04.383Z,0.88
2023-03-02T04:47:06.272Z,0.70
2023-03-02T04:48:08.438Z,0.80
2023-03-02T04:49:10.503Z,1.38
2023-03-02T04:50:14.887Z,1.10
2023-03-02T04:51:24.316Z,0.85
2023-03-02T04:52:26.524Z,1.00
2023-03-02T04:53:28.369Z,0.90
2023-03-02T04:54:30.293Z,0.80
2023-03-02T04:55:32.246Z,0.60
2023-03-02T04:56:35.089Z,0.70
2023-03-02T04:57:37.170Z,0.80
2023-03-02T04:58:39.016Z,0.70
2023-03-02T04:59:40.897Z,0.70
2023-03-02T05:00:42.804Z,0.70
2023-03-02T05:01:47.922Z,0.57
2023-03-02T05:02:49.999Z,0.70
2023-03-02T05:03:51.971Z,0.77
2023-03-02T05:04:53.782Z,0.80
2023-03-02T05:05:57.202Z,0.82
2023-03-02T05:06:59.421Z,0.70
2023-03-02T05:08:01.285Z,0.63
2023-03-02T05:09:03.159Z,0.70
2023-03-02T05:10:05.309Z,0.60
2023-03-02T05:11:08.297Z,0.50
2023-03-02T05:12:10.184Z,0.88
2023-03-02T05:13:12.134Z,0.75
2023-03-02T05:14:14.070Z,0.60
2023-03-02T05:15:16.037Z,0.65
2023-03-02T05:16:18.898Z,0.60
2023-03-02T05:17:20.966Z,0.73
2023-03-02T05:18:23.447Z,0.52
2023-03-02T05:19:25.603Z,0.50
2023-03-02T05:20:30.382Z,0.50
2023-03-02T05:21:32.614Z,0.50
2023-03-02T05:22:34.537Z,0.65
2023-03-02T05:23:36.414Z,0.60
2023-03-02T05:24:38.343Z,0.45
2023-03-02T05:25:40.287Z,0.60
2023-03-02T05:26:42.505Z,0.50
2023-03-02T05:27:44.411Z,0.60
2023-03-02T05:28:46.564Z,0.82
2023-03-02T05:29:48.372Z,0.60
2023-03-02T05:30:50.782Z,0.60
2023-03-02T05:31:52.732Z,0.70
2023-03-02T05:32:55.250Z,0.73
2023-03-02T05:33:58.047Z,0.45
2023-03-02T05:35:00.562Z,0.98
2023-03-02T05:36:02.583Z,0.52
2023-03-02T05:37:04.485Z,0.85
2023-03-02T05:38:06.750Z,0.60
2023-03-02T05:39:09.445Z,0.65
2023-03-02T05:40:18.002Z,0.80
2023-03-02T05:41:19.909Z,0.65
2023-03-02T05:42:21.757Z,0.57
2023-03-02T05:43:23.852Z,0.73
2023-03-02T05:44:25.783Z,0.73
2023-03-02T05:45:35.148Z,0.70
2023-03-02T05:46:37.355Z,0.60
2023-03-02T05:47:39.299Z,0.60
2023-03-02T05:48:42.304Z,0.40
2023-03-02T05:49:44.211Z,0.80
2023-03-02T05:50:46.431Z,0.57
2023-03-02T05:51:48.268Z,0.57
2023-03-02T05:52:50.608Z,0.63
2023-03-02T05:53:52.472Z,0.52
2023-03-02T05:54:54.286Z,0.65
2023-03-02T05:55:56.335Z,0.73
2023-03-02T05:56:58.854Z,0.65
2023-03-02T05:58:00.682Z,0.68
2023-03-02T05:59:02.661Z,0.60
2023-03-02T06:00:06.194Z,0.57
2023-03-02T06:01:15.568Z,0.50
2023-03-02T06:02:17.577Z,0.60
2023-03-02T06:03:19.835Z,0.68
2023-03-02T06:04:21.647Z,0.70
2023-03-02T06:05:24.656Z,0.60
2023-03-02T06:06:26.539Z,0.43
2023-03-02T06:07:29.973Z,0.60
2023-03-02T06:08:31.940Z,0.70
2023-03-02T06:09:33.945Z,0.60
2023-03-02T06:10:36.295Z,0.60
2023-03-02T06:11:38.118Z,0.55
2023-03-02T06:12:40.877Z,0.70
2023-03-02T06:13:42.740Z,0.70
2023-03-02T06:14:44.689Z,0.60
2023-03-02T06:15:46.714Z,0.57
2023-03-02T06:16:49.044Z,0.50
2023-03-02T06:17:51.289Z,0.45
2023-03-02T06:18:53.066Z,0.63
2023-03-02T06:19:54.857Z,0.65
2023-03-02T06:20:56.824Z,0.45
2023-03-02T06:21:58.842Z,0.70
2023-03-02T06:23:00.713Z,0.93
2023-03-02T06:24:02.541Z,0.50
2023-03-02T06:25:05.315Z,0.63
2023-03-02T06:26:12.197Z,0.57
2023-03-02T06:27:14.674Z,0.80
2023-03-02T06:28:19.850Z,0.50
2023-03-02T06:29:22.550Z,0.75
2023-03-02T06:30:26.062Z,0.50
2023-03-02T06:31:28.051Z,0.50
2023-03-02T06:32:34.210Z,0.75
2023-03-02T06:33:36.152Z,0.60
2023-03-02T06:34:37.952Z,0.50
2023-03-02T06:35:39.927Z,0.50
2023-03-02T06:36:41.864Z,0.82
2023-03-02T06:37:44.487Z,0.50
2023-03-02T06:38:46.514Z,0.40
2023-03-02T06:39:48.382Z,0.50
2023-03-02T06:40:50.158Z,0.52
2023-03-02T06:41:52.137Z,0.50
2023-03-02T06:42:53.928Z,0.70
2023-03-02T06:43:55.745Z,0.70
2023-03-02T06:44:57.858Z,0.70
2023-03-02T06:46:00.875Z,0.63
2023-03-02T06:47:02.848Z,0.52
2023-03-02T06:48:05.421Z,0.40
2023-03-02T06:49:07.842Z,0.52
2023-03-02T06:50:10.544Z,0.63
2023-03-02T06:51:12.825Z,0.57
2023-03-02T06:52:14.718Z,0.68
2023-03-02T06:53:18.529Z,0.70
2023-03-02T06:54:21.668Z,0.45
2023-03-02T06:55:24.989Z,0.70
2023-03-02T06:56:27.413Z,0.60
2023-03-02T06:57:33.910Z,0.35
2023-03-02T06:58:36.402Z,0.57
2023-03-02T06:59:38.226Z,0.50
2023-03-02T07:00:40.371Z,0.50
2023-03-02T07:01:42.421Z,0.40
2023-03-02T07:02:45.260Z,0.40
2023-03-02T07:03:47.764Z,0.75
2023-03-02T07:04:49.570Z,0.50
2023-03-02T07:05:52.308Z,0.57
2023-03-02T07:06:54.806Z,0.47
2023-03-02T07:07:56.598Z,0.50
2023-03-02T07:08:58.458Z,0.57
2023-03-02T07:10:00.471Z,0.30
2023-03-02T07:11:06.621Z,0.50
2023-03-02T07:12:08.426Z,0.70
2023-03-02T07:13:10.226Z,0.75
2023-03-02T07:14:12.014Z,0.60
2023-03-02T07:15:14.553Z,0.75
2023-03-02T07:16:17.923Z,0.60
2023-03-02T07:17:19.825Z,0.45
2023-03-02T07:18:21.844Z,0.32
2023-03-02T07:19:23.677Z,0.65
2023-03-02T07:20:25.562Z,0.55
2023-03-02T07:21:28.019Z,0.40
2023-03-02T07:22:29.869Z,0.60
2023-03-02T07:23:31.931Z,0.70
2023-03-02T07:24:33.758Z,0.60
2023-03-02T07:25:37.054Z,0.40
2023-03-02T07:26:38.944Z,0.45
2023-03-02T07:27:40.962Z,0.55
2023-03-02T07:28:44.487Z,0.65
2023-03-02T07:29:46.309Z,0.60
2023-03-02T07:30:48.335Z,0.30
2023-03-02T07:31:55.738Z,0.50
2023-03-02T07:32:57.743Z,0.35
2023-03-02T07:33:59.612Z,0.30
2023-03-02T07:35:01.412Z,0.30
2023-03-02T07:36:03.552Z,0.60
2023-03-02T07:37:05.423Z,0.40
2023-03-02T07:38:07.259Z,0.63
2023-03-02T07:39:09.123Z,0.50
2023-03-02T07:40:12.771Z,0.40
2023-03-02T07:41:18.831Z,0.50
2023-03-02T07:42:20.728Z,0.30
2023-03-02T07:43:28.793Z,0.43
2023-03-02T07:44:31.445Z,0.60
2023-03-02T07:45:33.357Z,0.52
2023-03-02T07:46:35.242Z,0.40
2023-03-02T07:47:37.227Z,0.30
2023-03-02T07:48:39.051Z,0.40
2023-03-02T07:49:41.088Z,0.40
2023-03-02T07:50:42.934Z,0.47
2023-03-02T07:51:44.905Z,0.40
2023-03-02T07:52:46.766Z,0.65
2023-03-02T07:53:48.605Z,0.60
2023-03-02T07:54:51.069Z,0.60
2023-03-02T07:55:52.956Z,0.40
2023-03-02T07:56:54.735Z,0.40
2023-03-02T07:57:56.949Z,0.40
2023-03-02T07:58:58.915Z,0.70
2023-03-02T08:00:02.023Z,0.50
2023-03-02T08:01:13.553Z,0.63
2023-03-02T08:02:17.441Z,0.47
2023-03-02T08:03:19.234Z,0.30
2023-03-02T08:04:21.135Z,0.30
2023-03-02T08:05:22.943Z,0.43
2023-03-02T08:06:24.783Z,0.50
2023-03-02T08:07:26.725Z,0.40
2023-03-02T08:08:28.501Z,0.40
2023-03-02T08:09:30.550Z,0.40
2023-03-02T08:10:35.085Z,0.50
2023-03-02T08:11:36.911Z,0.50
2023-03-02T08:12:38.828Z,0.50
2023-03-02T08:13:41.177Z,0.47
2023-03-02T08:14:42.995Z,0.20
2023-03-02T08:15:44.819Z,0.45
2023-03-02T08:16:46.820Z,0.50
2023-03-02T08:17:49.223Z,0.47
2023-03-02T08:18:51.001Z,0.32
2023-03-02T08:19:52.912Z,0.50
2023-03-02T08:20:55.030Z,0.63
2023-03-02T08:21:56.993Z,0.55
2023-03-02T08:22:58.841Z,0.38
2023-03-02T08:24:00.692Z,0.40
2023-03-02T08:25:03.564Z,0.65
2023-03-02T08:26:05.383Z,0.50
2023-03-02T08:27:08.185Z,0.75
2023-03-02T08:28:10.207Z,0.55
2023-03-02T08:29:12.366Z,1.05
2023-03-02T08:30:14.531Z,0.60
2023-03-02T08:31:16.613Z,0.60
2023-03-02T08:32:18.409Z,0.65
2023-03-02T08:33:20.333Z,0.40
2023-03-02T08:34:22.210Z,0.35
2023-03-02T08:35:24.228Z,0.50
2023-03-02T08:36:26.509Z,0.47
2023-03-02T08:37:28.746Z,0.65
2023-03-02T08:38:31.505Z,0.52
2023-03-02T08:39:33.637Z,0.50
2023-03-02T08:40:35.419Z,0.63
2023-03-02T08:41:37.544Z,0.50
2023-03-02T08:42:39.431Z,0.50
2023-03-02T08:43:41.663Z,0.60
2023-03-02T08:44:44.013Z,0.30
2023-03-02T08:45:46.346Z,0.50
2023-03-02T08:46:49.820Z,0.28
2023-03-02T08:47:54.863Z,0.43
2023-03-02T08:48:56.868Z,0.40
2023-03-02T08:49:58.663Z,0.60
2023-03-02T08:51:07.171Z,0.60
2023-03-02T08:52:09.063Z,0.50
2023-03-02T08:53:10.860Z,0.65
2023-03-02T08:54:13.024Z,0.40
2023-03-02T08:55:15.071Z,0.50
2023-03-02T08:56:19.532Z,0.60
2023-03-02T08:57:21.508Z,0.50
2023-03-02T08:58:23.457Z,0.47
2023-03-02T08:59:25.301Z,0.50
2023-03-02T09:00:27.160Z,0.80
2023-03-02T09:01:32.426Z,0.50
2023-03-02T09:02:34.625Z,0.47
2023-03-02T09:03:36.417Z,0.70
2023-03-02T09:04:38.837Z,0.52
2023-03-02T09:05:41.409Z,0.70
2023-03-02T09:06:45.100Z,0.50
2023-03-02T09:07:46.908Z,0.70
2023-03-02T09:08:49.035Z,0.60
2023-03-02T09:09:51.011Z,0.50
2023-03-02T09:12:07.779Z,0.60
2023-03-02T09:13:09.592Z,0.77
2023-03-02T09:14:11.563Z,0.70
2023-03-02T09:15:13.437Z,0.80
2023-03-02T09:16:15.867Z,0.68
2023-03-02T09:17:17.983Z,0.68
2023-03-02T09:18:19.806Z,1.05
2023-03-02T09:19:21.617Z,0.70
2023-03-02T09:20:23.887Z,0.52
2023-03-02T09:21:26.423Z,0.93
2023-03-02T09:22:28.804Z,0.90
2023-03-02T09:23:31.442Z,0.98
2023-03-02T09:24:33.234Z,1.02
2023-03-02T09:25:35.111Z,1.05
2023-03-02T09:26:38.331Z,0.98
2023-03-02T09:27:40.137Z,0.70
2023-03-02T09:28:42.025Z,1.00
2023-03-02T09:40:25.084Z,0.70
2023-03-02T09:42:10.392Z,0.88
2023-03-02T09:43:18.176Z,1.27
2023-03-02T09:44:40.785Z,0.82
2023-03-02T09:46:05.186Z,0.68
2023-03-02T09:47:34.602Z,0.85
2023-03-02T09:48:55.136Z,0.80
2023-03-02T09:50:21.392Z,0.98
2023-03-02T09:51:39.761Z,1.02
2023-03-02T09:52:49.631Z,1.02
2023-03-02T09:54:07.426Z,0.90
2023-03-02T09:55:32.478Z,1.02
2023-03-02T09:56:38.172Z,0.88
2023-03-02T09:57:40.171Z,0.90
2023-03-02T09:58:47.652Z,0.90
2023-03-02T09:59:59.864Z,0.80
2023-03-02T10:01:17.636Z,1.05
2023-03-02T10:02:43.118Z,0.95
2023-03-02T10:03:54.671Z,0.98
2023-03-02T10:05:00.772Z,1.00
2023-03-02T10:06:02.555Z,0.70
2023-03-02T10:07:22.992Z,0.70
2023-03-02T10:08:31.173Z,1.10
2023-03-02T10:09:33.047Z,0.70
2023-03-02T10:10:45.958Z,0.75
2023-03-02T10:11:59.929Z,1.08
2023-03-02T10:13:16.793Z,1.30
2023-03-02T10:14:27.013Z,0.80
2023-03-02T10:15:39.990Z,1.08
2023-03-02T10:17:19.669Z,1.02
2023-03-02T10:18:45.518Z,1.00
2023-03-02T10:19:55.474Z,0.90
2023-03-02T10:21:01.899Z,1.33
2023-03-02T10:22:11.828Z,0.95
2023-03-02T10:23:50.489Z,1.23
2023-03-02T10:25:12.673Z,1.27
2023-03-02T10:26:27.571Z,1.17
2023-03-02T10:27:39.717Z,1.20
2023-03-02T10:28:52.574Z,1.30
2023-03-02T10:30:08.091Z,1.10
2023-03-02T10:31:25.989Z,1.20
2023-03-02T10:32:35.984Z,0.95
2023-03-02T10:33:40.591Z,0.85
2023-03-02T10:34:42.548Z,1.00
2023-03-02T10:35:48.352Z,0.85
2023-03-02T10:36:50.262Z,1.15
2023-03-02T10:37:58.404Z,1.65
2023-03-02T10:39:00.996Z,1.45
2023-03-02T10:40:02.907Z,0.90
2023-03-02T10:41:08.681Z,1.30
2023-03-02T10:42:22.504Z,1.35
2023-03-02T10:43:31.771Z,1.23
2023-03-02T10:44:40.900Z,1.33
2023-03-02T10:45:42.986Z,1.20
2023-03-02T10:46:46.405Z,1.20
2023-03-02T10:47:48.351Z,1.20
2023-03-02T10:48:59.712Z,1.00
2023-03-02T10:50:01.565Z,1.50
2023-03-02T10:51:03.656Z,1.58
2023-03-02T10:52:16.745Z,1.50
2023-03-02T10:53:18.983Z,1.38
2023-03-02T10:54:20.944Z,1.10
2023-03-02T10:55:22.745Z,1.35
2023-03-02T10:56:24.780Z,1.48
2023-03-02T10:57:30.855Z,1.15
2023-03-02T10:58:34.358Z,0.98
2023-03-02T10:59:43.851Z,1.20
2023-03-02T11:00:56.482Z,1.20
2023-03-02T11:02:03.035Z,1.05
2023-03-02T11:03:20.296Z,1.38
2023-03-02T11:04:22.374Z,1.10
2023-03-02T11:05:38.259Z,1.30
2023-03-02T11:06:40.132Z,1.10
2023-03-02T11:07:52.809Z,1.27
2023-03-02T11:09:05.734Z,1.40
2023-03-02T11:10:19.025Z,0.98
2023-03-02T11:11:23.560Z,1.30
2023-03-02T11:12:25.562Z,1.10
2023-03-02T11:13:34.839Z,1.17
2023-03-02T11:14:36.653Z,1.17
2023-03-02T11:15:45.889Z,0.80
2023-03-02T11:16:48.041Z,1.60
2023-03-02T11:17:55.622Z,1.10
2023-03-02T11:19:23.293Z,1.40
2023-03-02T11:20:30.039Z,0.70
2023-03-02T11:21:44.295Z,1.13
2023-03-02T11:23:21.365Z,1.02
2023-03-02T11:24:39.409Z,1.17
2023-03-02T11:25:48.526Z,0.80
2023-03-02T11:26:54.090Z,1.00
2023-03-02T11:28:54.383Z,1.08
2023-03-02T11:30:02.076Z,0.93
2023-03-02T11:31:11.459Z,0.95
2023-03-02T11:32:25.161Z,1.00
2023-03-02T11:33:53.206Z,1.10
2023-03-02T11:35:01.554Z,1.10
2023-03-02T11:36:14.602Z,0.82
2023-03-02T11:37:45.361Z,0.95
2023-03-02T11:38:56.417Z,1.00
2023-03-02T11:40:26.426Z,1.10
2023-03-02T11:41:34.626Z,1.00
2023-03-02T11:42:41.095Z,0.85
2023-03-02T11:43:42.858Z,0.98
2023-03-02T11:44:46.302Z,1.05
2023-03-02T11:46:10.843Z,1.33
2023-03-02T11:47:16.486Z,0.90
2023-03-02T11:48:36.513Z,1.48
2023-03-02T11:49:43.512Z,1.77
2023-03-02T11:51:10.989Z,1.08
2023-03-02T11:52:36.668Z,1.35
2023-03-02T11:53:58.304Z,1.00
2023-03-02T11:55:12.458Z,1.10
2023-03-02T11:56:14.294Z,1.05
2023-03-02T11:57:35.782Z,1.10
2023-03-02T11:58:39.182Z,1.20
2023-03-02T11:59:41.045Z,1.23
2023-03-02T12:00:43.405Z,1.10
2023-03-02T12:01:50.170Z,1.30
2023-03-02T12:03:05.379Z,1.10
2023-03-02T12:04:25.569Z,0.88
2023-03-02T12:05:30.441Z,1.25
2023-03-02T12:06:38.849Z,0.82
2023-03-02T12:07:40.692Z,1.50
2023-03-02T12:08:46.570Z,1.05
2023-03-02T12:10:24.058Z,0.90
2023-03-02T12:11:34.268Z,0.82
2023-03-02T12:12:46.878Z,0.88
2023-03-02T12:13:54.777Z,1.00
2023-03-02T12:14:56.652Z,1.08
2023-03-02T12:15:58.984Z,1.00
2023-03-02T12:17:26.605Z,1.23
2023-03-02T12:18:41.281Z,0.90
2023-03-02T12:19:45.230Z,0.95
2023-03-02T12:21:09.184Z,0.85
2023-03-02T12:22:14.575Z,0.80
2023-03-02T12:23:24.555Z,1.05
2023-03-02T12:24:32.824Z,1.17
2023-03-02T12:25:43.996Z,0.93
2023-03-02T12:26:45.802Z,0.70
2023-03-02T12:27:50.934Z,0.80
2023-03-02T12:29:01.677Z,0.90
2023-03-02T12:30:15.766Z,0.60
2023-03-02T12:31:17.612Z,1.33
2023-03-02T12:32:19.404Z,1.00
2023-03-02T12:33:21.807Z,0.90
2023-03-02T12:34:43.201Z,0.68
2023-03-02T12:35:46.116Z,0.98
2023-03-02T12:36:50.112Z,0.98
2023-03-02T12:37:58.683Z,1.20
2023-03-02T12:39:12.467Z,0.98
2023-03-02T12:40:37.428Z,0.95
2023-03-02T12:42:08.511Z,0.65
2023-03-02T12:43:27.270Z,0.90
2023-03-02T12:44:42.692Z,0.75
2023-03-02T12:45:44.547Z,0.85
2023-03-02T12:46:47.956Z,1.15
2023-03-02T12:48:01.412Z,0.90
2023-03-02T12:49:30.901Z,0.95
2023-03-02T12:50:37.756Z,0.80
2023-03-02T12:51:49.595Z,0.90
2023-03-02T12:53:03.890Z,0.90
2023-03-02T12:54:07.892Z,1.23
2023-03-02T12:55:09.629Z,0.90
2023-03-02T12:56:25.114Z,1.00
2023-03-02T12:57:27.427Z,1.00
2023-03-02T12:58:30.135Z,1.15
2023-03-02T12:59:32.542Z,1.20
2023-03-02T13:00:34.875Z,1.00
2023-03-02T13:01:36.649Z,0.98
2023-03-02T13:02:47.027Z,0.93
2023-03-02T13:03:49.578Z,0.80
2023-03-02T13:05:08.783Z,1.05
2023-03-02T13:06:19.618Z,0.80
2023-03-02T13:07:37.990Z,1.20
2023-03-02T13:08:43.525Z,0.95
2023-03-02T13:09:56.334Z,1.17
2023-03-02T13:11:02.226Z,0.95
2023-03-02T13:12:04.180Z,1.08
2023-03-02T13:13:35.383Z,1.30
2023-03-02T13:14:41.590Z,1.10
2023-03-02T13:15:58.522Z,1.20
2023-03-02T13:17:05.050Z,1.23
2023-03-02T13:18:12.162Z,1.23
2023-03-02T13:19:18.410Z,1.00
2023-03-02T13:20:22.686Z,1.20
2023-03-02T13:21:37.837Z,1.20
2023-03-02T13:22:40.404Z,1.40
2023-03-02T13:23:48.582Z,1.20
2023-03-02T13:24:58.066Z,1.15
2023-03-02T13:26:04.073Z,1.33
2023-03-02T13:27:14.278Z,1.35
2023-03-02T13:28:24.860Z,1.20
2023-03-02T13:29:27.795Z,1.45
2023-03-02T13:30:32.318Z,1.48
2023-03-02T13:31:35.148Z,1.35
2023-03-02T13:32:42.078Z,1.60
2023-03-02T13:33:46.217Z,1.52
2023-03-02T13:34:54.290Z,1.73
2023-03-02T13:35:56.625Z,1.23
2023-03-02T13:36:58.856Z,1.20
2023-03-02T13:38:04.854Z,1.30
2023-03-02T13:39:17.830Z,1.70
2023-03-02T13:40:22.383Z,1.50
2023-03-02T13:41:25.875Z,1.45
2023-03-02T13:42:39.949Z,1.63
2023-03-02T13:43:41.887Z,1.52
2023-03-02T13:44:43.703Z,1.63
2023-03-02T13:45:54.918Z,1.42
2023-03-02T13:46:57.237Z,1.40
2023-03-02T13:48:12.573Z,1.52
2023-03-02T13:49:14.520Z,1.38
2023-03-02T13:50:24.481Z,1.92
2023-03-02T13:51:29.701Z,1.88
2023-03-02T13:52:31.504Z,1.60
2023-03-02T13:53:38.017Z,1.42
2023-03-02T13:54:43.859Z,1.50
2023-03-02T13:55:45.909Z,1.75
2023-03-02T13:56:49.046Z,1.70
2023-03-02T13:57:52.890Z,1.48
2023-03-02T13:58:54.954Z,1.80
2023-03-02T13:59:57.419Z,1.67
2023-03-02T14:00:59.297Z,2.08
2023-03-02T14:02:01.299Z,1.75
2023-03-02T14:03:03.181Z,2.22
2023-03-02T14:04:05.137Z,2.53
2023-03-02T14:05:10.245Z,1.85
2023-03-02T14:06:12.176Z,1.80
2023-03-02T14:07:13.945Z,2.13
2023-03-02T14:08:15.769Z,2.38
2023-03-02T14:09:17.820Z,2.30
2023-03-02T14:10:20.754Z,2.00
2023-03-02T14:11:22.624Z,2.13
2023-03-02T14:12:28.603Z,1.85
2023-03-02T14:13:43.421Z,1.98
2023-03-02T14:14:45.669Z,1.90
2023-03-02T14:15:50.555Z,1.70
2023-03-02T14:16:52.644Z,1.73
2023-03-02T14:17:54.441Z,1.90
2023-03-02T14:18:56.492Z,1.60
2023-03-02T14:19:58.445Z,1.58
2023-03-02T14:21:00.347Z,1.80
2023-03-02T14:22:02.198Z,1.75
2023-03-02T14:23:06.854Z,1.52
2023-03-02T14:24:08.933Z,2.00
2023-03-02T14:25:11.081Z,1.65
2023-03-02T14:26:35.056Z,1.63
2023-03-02T14:27:38.118Z,1.48
2023-03-02T14:28:39.930Z,1.42
2023-03-02T14:29:43.372Z,1.48
2023-03-02T14:30:45.464Z,1.90
2023-03-02T14:31:47.448Z,1.83
2023-03-02T14:32:49.293Z,1.90
2023-03-02T14:33:51.845Z,1.70
2023-03-02T14:34:53.668Z,1.50
2023-03-02T14:35:58.318Z,1.55
2023-03-02T14:37:06.809Z,1.42
2023-03-02T14:38:10.532Z,1.50
2023-03-02T14:39:35.424Z,1.38
2023-03-02T14:40:38.562Z,1.63
2023-03-02T14:41:52.915Z,1.55
2023-03-02T14:42:55.829Z,1.60
2023-03-02T14:43:57.627Z,1.30
2023-03-02T14:45:00.016Z,1.50
2023-03-02T14:46:01.953Z,1.27